createdAt,value
2022-08-14T00:03:08.210Z,12.48
2022-08-14T00:08:14.308Z,12.20
2022-08-14T00:13:19.689Z,12.32
2022-08-14T00:18:30.541Z,13.60
2022-08-14T00:23:53.835Z,11.90
2022-08-14T00:28:56.961Z,12.88
2022-08-14T00:34:35.355Z,13.85
2022-08-14T00:39:24.189Z,14.20
2022-08-14T00:44:32.646Z,15.15
2022-08-14T00:49:38.337Z,13.98
2022-08-14T00:54:57.982Z,13.65
2022-08-14T01:00:02.741Z,14.13
2022-08-14T01:05:07.863Z,13.98
2022-08-14T01:10:10.612Z,13.82
2022-08-14T01:15:14.807Z,14.52
2022-08-14T01:20:39.941Z,14.40
2022-08-14T01:25:43.988Z,14.35
2022-08-14T01:30:50.166Z,15.00
2022-08-14T01:36:05.355Z,14.88
2022-08-14T01:41:23.005Z,14.50
2022-08-14T01:46:39.686Z,14.63
2022-08-14T01:51:45.445Z,14.43
2022-08-14T02:02:58.624Z,15.15
2022-08-14T02:08:08.865Z,15.18
2022-08-14T02:13:12.919Z,14.52
2022-08-14T02:23:28.924Z,14.73
2022-08-14T02:28:58.554Z,13.95
2022-08-14T02:33:57.157Z,14.80
2022-08-14T02:39:00.000Z,17.25
2022-08-14T02:44:04.490Z,16.27
2022-08-14T02:49:11.691Z,16.23
2022-08-14T02:54:19.754Z,15.95
2022-08-14T02:59:33.693Z,16.00
2022-08-14T03:04:39.953Z,15.63
2022-08-14T03:10:26.438Z,18.30
2022-08-14T03:15:14.195Z,17.38
2022-08-14T03:20:19.532Z,16.52
2022-08-14T03:25:26.329Z,16.40
2022-08-14T03:30:40.040Z,15.60
2022-08-14T03:35:59.946Z,17.35
2022-08-14T03:41:14.508Z,17.40
2022-08-14T03:46:39.220Z,16.15
2022-08-14T03:51:44.024Z,17.42
2022-08-14T03:56:50.180Z,16.58
2022-08-14T04:02:01.473Z,18.02
2022-08-14T04:07:04.857Z,17.10
2022-08-14T04:17:19.151Z,16.35
2022-08-14T04:22:23.886Z,16.73
2022-08-14T04:27:27.412Z,19.25
2022-08-14T04:33:00.116Z,19.02
2022-08-14T04:38:37.330Z,16.03
2022-08-14T04:43:39.556Z,17.05
2022-08-14T04:48:47.543Z,16.85
2022-08-14T04:53:57.991Z,14.90
2022-08-14T04:59:10.474Z,13.07
2022-08-14T05:04:14.706Z,12.77
2022-08-14T05:09:21.611Z,11.60
2022-08-14T05:14:46.085Z,10.45
2022-08-14T05:21:54.200Z,10.10
2022-08-14T05:25:12.905Z,9.07
2022-08-14T05:30:18.628Z,8.63
2022-08-14T05:35:21.821Z,8.32
2022-08-14T05:40:24.282Z,8.63
2022-08-14T05:50:30.641Z,8.73
2022-08-14T05:55:33.483Z,8.10
2022-08-14T06:00:44.576Z,9.00
2022-08-14T06:05:52.084Z,8.98
2022-08-14T06:11:03.005Z,8.77
2022-08-14T06:16:07.643Z,8.95
2022-08-14T06:21:13.557Z,8.38
2022-08-14T06:26:30.195Z,8.02
2022-08-14T06:31:35.869Z,7.72
2022-08-14T06:36:39.486Z,8.73
2022-08-14T06:41:57.481Z,10.32
2022-08-14T06:47:03.117Z,8.98
2022-08-14T06:52:05.901Z,8.27
2022-08-14T06:57:10.617Z,8.27
2022-08-14T07:02:31.903Z,7.90
2022-08-14T07:07:40.207Z,7.35
2022-08-14T07:13:00.709Z,7.72
2022-08-14T07:18:08.788Z,7.43
2022-08-14T07:23:21.492Z,7.53
2022-08-14T07:28:50.360Z,7.10
2022-08-14T07:33:53.206Z,6.90
2022-08-14T07:44:02.971Z,6.13
2022-08-14T07:49:24.537Z,6.47
2022-08-14T07:54:29.909Z,6.40
2022-08-14T07:59:42.497Z,5.75
2022-08-14T08:04:59.254Z,6.00
2022-08-14T08:11:01.661Z,6.28
2022-08-14T08:16:09.134Z,5.55
2022-08-14T08:21:12.741Z,5.00
2022-08-14T08:26:16.046Z,5.50
2022-08-14T08:31:23.177Z,5.88
2022-08-14T08:36:42.561Z,5.65
2022-08-14T08:41:50.469Z,6.45
2022-08-14T08:47:06.720Z,5.82
2022-08-14T08:52:54.662Z,5.00
2022-08-14T09:10:05.635Z,5.68
2022-08-14T09:15:43.599Z,4.63
2022-08-14T09:21:10.304Z,5.35
2022-08-14T09:26:37.196Z,4.30
2022-08-14T09:31:54.607Z,4.25
2022-08-14T09:37:18.151Z,3.95
2022-08-14T09:56:01.105Z,2.72
2022-08-14T10:01:12.401Z,2.80
2022-08-14T10:11:35.075Z,2.65
2022-08-14T10:17:06.314Z,2.78
2022-08-14T10:23:14.855Z,2.80
2022-08-14T10:27:59.508Z,3.03
2022-08-14T10:33:01.765Z,2.90
2022-08-14T10:43:41.441Z,2.70
2022-08-14T10:49:02.948Z,3.05
2022-08-14T10:54:26.244Z,2.85
2022-08-14T10:59:45.825Z,2.85
2022-08-14T11:05:13.590Z,2.85
2022-08-14T11:10:17.523Z,3.30
2022-08-14T11:15:24.983Z,3.20
2022-08-14T11:20:29.986Z,3.10
2022-08-14T11:25:43.883Z,3.20
2022-08-14T11:30:56.697Z,4.05
2022-08-14T11:36:02.700Z,3.63
2022-08-14T11:41:20.580Z,3.70
2022-08-14T11:46:30.414Z,3.70
2022-08-14T11:51:53.019Z,3.42
2022-08-14T11:56:57.544Z,3.40
2022-08-14T12:03:00.247Z,3.67
2022-08-14T12:08:13.386Z,3.90
2022-08-14T12:13:23.522Z,3.90
2022-08-14T12:18:43.622Z,3.25
2022-08-14T12:23:50.541Z,3.60
2022-08-14T12:29:08.216Z,4.80
2022-08-14T12:34:12.568Z,3.92
2022-08-14T12:39:21.252Z,5.25
2022-08-14T12:44:37.316Z,5.80
2022-08-14T12:49:54.383Z,5.95
2022-08-14T12:55:06.810Z,5.88
2022-08-14T13:00:22.860Z,5.63
2022-08-14T13:05:31.421Z,5.85
2022-08-14T13:10:47.813Z,5.20
2022-08-14T13:15:57.451Z,5.90
2022-08-14T13:21:02.186Z,5.63
2022-08-14T13:26:05.028Z,5.03
2022-08-14T13:31:11.370Z,6.47
2022-08-14T13:36:24.007Z,5.70
2022-08-14T13:41:38.648Z,5.55
2022-08-14T13:46:44.556Z,5.78
2022-08-14T13:51:54.241Z,5.45
2022-08-14T13:56:57.018Z,5.55
2022-08-14T14:02:08.764Z,6.03
2022-08-14T14:07:21.844Z,5.57
2022-08-14T14:12:38.247Z,6.75
2022-08-14T14:17:44.995Z,6.78
2022-08-14T14:23:02.493Z,9.50
2022-08-14T14:28:06.845Z,8.07
2022-08-14T14:33:28.921Z,7.40
2022-08-14T14:38:34.094Z,8.00
2022-08-14T14:43:45.146Z,9.75
2022-08-14T14:48:54.730Z,9.30
2022-08-14T14:54:01.964Z,9.48
2022-08-14T14:59:07.664Z,9.85
2022-08-14T15:04:20.160Z,11.00
2022-08-14T15:09:23.894Z,10.32
2022-08-14T15:14:56.605Z,11.50
2022-08-14T15:19:56.395Z,10.90
2022-08-14T15:24:59.464Z,10.98
2022-08-14T15:30:06.651Z,10.60
2022-08-14T15:35:11.980Z,10.27
2022-08-14T15:40:21.910Z,10.27
2022-08-14T15:45:25.847Z,9.93
2022-08-14T15:50:30.585Z,9.70
2022-08-14T15:55:32.933Z,11.60
2022-08-14T16:00:55.497Z,12.13
2022-08-14T16:11:05.785Z,9.90
2022-08-14T16:16:34.736Z,10.80
2022-08-14T16:21:34.839Z,18.30
2022-08-14T16:26:43.068Z,12.80
2022-08-14T16:31:47.571Z,11.18
2022-08-14T16:36:51.016Z,10.00
2022-08-14T16:41:53.722Z,11.27
2022-08-14T16:46:57.522Z,11.43
2022-08-14T16:52:03.772Z,12.05
2022-08-14T16:57:26.174Z,10.10
2022-08-14T17:02:36.812Z,16.58
2022-08-14T17:08:28.521Z,16.70
2022-08-14T17:13:57.758Z,22.05
2022-08-14T17:19:00.735Z,38.92
2022-08-14T17:29:34.287Z,22.60
2022-08-14T17:34:48.082Z,12.10
2022-08-14T17:40:15.071Z,9.30
2022-08-14T17:45:26.782Z,9.00
2022-08-14T17:50:59.743Z,8.63
2022-08-14T17:56:51.515Z,13.70
2022-08-14T18:01:54.449Z,24.05
2022-08-14T18:07:16.114Z,16.70
2022-08-14T18:12:31.515Z,15.88
2022-08-14T18:17:37.260Z,41.50
2022-08-14T18:22:49.120Z,35.00
2022-08-14T18:27:57.199Z,18.07
2022-08-14T18:33:21.207Z,17.95
2022-08-14T18:38:46.169Z,50.97
2022-08-14T18:44:17.658Z,53.50
2022-08-14T18:49:19.974Z,57.75
2022-08-14T18:54:30.009Z,68.60
2022-08-14T18:59:39.284Z,50.30
2022-08-14T19:04:44.824Z,21.67
2022-08-14T19:10:01.112Z,15.68
2022-08-14T19:15:12.279Z,14.45
2022-08-14T19:20:20.132Z,12.77
2022-08-14T19:25:48.194Z,12.30
2022-08-14T19:31:41.938Z,14.75
2022-08-14T19:37:05.280Z,14.77
2022-08-14T19:42:10.563Z,14.00
2022-08-14T19:47:15.457Z,13.50
2022-08-14T19:57:33.442Z,11.55
2022-08-14T20:02:37.440Z,12.73
2022-08-14T20:07:59.135Z,13.00
2022-08-14T20:13:10.026Z,13.23
2022-08-14T20:18:45.873Z,13.02
2022-08-14T20:23:38.944Z,13.05
2022-08-14T20:28:51.409Z,13.52
2022-08-14T20:34:18.903Z,13.85
2022-08-14T20:39:27.140Z,13.93
2022-08-14T20:45:03.955Z,15.50
2022-08-14T20:50:28.568Z,14.50
2022-08-14T20:55:41.805Z,15.98
2022-08-14T21:00:57.736Z,14.13
2022-08-14T21:06:17.441Z,17.33
2022-08-14T21:11:24.940Z,20.10
2022-08-14T21:16:35.081Z,18.05
2022-08-14T21:21:54.613Z,16.20
2022-08-14T21:27:13.241Z,16.15
2022-08-14T21:32:50.201Z,17.00
2022-08-14T21:38:00.482Z,17.75
2022-08-14T21:43:02.752Z,16.50
2022-08-14T21:48:10.540Z,15.40
2022-08-14T21:53:14.630Z,16.20
2022-08-14T21:58:53.010Z,15.75
2022-08-14T22:03:44.893Z,15.98
2022-08-14T22:08:52.846Z,15.40
2022-08-14T22:13:56.430Z,17.33
2022-08-14T22:19:10.486Z,16.20
2022-08-14T22:24:25.905Z,16.23
2022-08-14T22:29:42.134Z,17.23
2022-08-14T22:34:48.545Z,16.17
2022-08-14T22:40:46.398Z,17.17
2022-08-14T22:45:17.043Z,17.05
2022-08-14T22:50:31.559Z,16.05
2022-08-14T22:55:40.422Z,14.57
2022-08-14T23:00:43.955Z,14.40
2022-08-14T23:05:51.731Z,14.75
2022-08-14T23:10:56.674Z,13.25
2022-08-14T23:16:01.001Z,11.95
2022-08-14T23:21:10.193Z,15.82
2022-08-14T23:26:47.262Z,12.80
2022-08-14T23:31:36.411Z,13.87
2022-08-14T23:36:53.989Z,15.73
2022-08-14T23:42:07.381Z,16.60
2022-08-14T23:47:25.407Z,16.40
2022-08-14T23:52:57.476Z,13.55
2022-08-14T23:57:58.283Z,16.55
